sensor_id;sensor_type;location;lat;lon;timestamp;pressure;altitude;pressure_sealevel;temperature;humidity
6208;BME280;3137;51.550;7.060;2023-02-15T00:01:57;102546.81;;;1.41;86.92
6208;BME280;3137;51.550;7.060;2023-02-15T00:04:24;102542.38;;;1.39;87.13
6208;BME280;3137;51.550;7.060;2023-02-15T00:07:13;102539.78;;;1.37;86.80
6208;BME280;3137;51.550;7.060;2023-02-15T00:09:39;102521.31;;;1.31;86.50
6208;BME280;3137;51.550;7.060;2023-02-15T00:12:06;102521.34;;;1.30;86.89
6208;BME280;3137;51.550;7.060;2023-02-15T00:14:32;102518.72;;;1.30;86.90
6208;BME280;3137;51.550;7.060;2023-02-15T00:16:59;102522.25;;;1.19;87.40
6208;BME280;3137;51.550;7.060;2023-02-15T00:19:26;102514.41;;;1.05;88.18
6208;BME280;3137;51.550;7.060;2023-02-15T00:21:52;102515.28;;;1.06;88.03
6208;BME280;3137;51.550;7.060;2023-02-15T00:24:19;102521.41;;;1.05;88.22
6208;BME280;3137;51.550;7.060;2023-02-15T00:26:46;102523.19;;;1.03;87.25
6208;BME280;3137;51.550;7.060;2023-02-15T00:29:15;102526.69;;;1.00;87.21
6208;BME280;3137;51.550;7.060;2023-02-15T00:31:42;102529.34;;;1.00;87.16
6208;BME280;3137;51.550;7.060;2023-02-15T00:34:18;102524.94;;;1.02;87.23
6208;BME280;3137;51.550;7.060;2023-02-15T00:36:45;102525.81;;;1.03;88.21
6208;BME280;3137;51.550;7.060;2023-02-15T00:39:14;102524.97;;;1.05;87.58
6208;BME280;3137;51.550;7.060;2023-02-15T00:41:41;102523.19;;;1.11;88.29
6208;BME280;3137;51.550;7.060;2023-02-15T00:44:07;102527.56;;;1.09;88.28
6208;BME280;3137;51.550;7.060;2023-02-15T00:46:35;102532.81;;;1.10;88.31
6208;BME280;3137;51.550;7.060;2023-02-15T00:49:02;102525.78;;;1.08;88.22
6208;BME280;3137;51.550;7.060;2023-02-15T00:51:30;102526.72;;;0.97;88.13
6208;BME280;3137;51.550;7.060;2023-02-15T00:53:56;102522.34;;;0.89;87.31
6208;BME280;3137;51.550;7.060;2023-02-15T00:56:23;102512.69;;;0.84;87.66
6208;BME280;3137;51.550;7.060;2023-02-15T00:58:49;102518.84;;;0.80;87.41
6208;BME280;3137;51.550;7.060;2023-02-15T01:01:18;102514.47;;;0.75;88.06
6208;BME280;3137;51.550;7.060;2023-02-15T01:03:45;102519.75;;;0.73;88.29
6208;BME280;3137;51.550;7.060;2023-02-15T01:06:14;102505.72;;;0.70;87.39
6208;BME280;3137;51.550;7.060;2023-02-15T01:08:42;102504.81;;;0.69;88.05
6208;BME280;3137;51.550;7.060;2023-02-15T01:11:12;102512.72;;;0.64;88.16
6208;BME280;3137;51.550;7.060;2023-02-15T01:13:40;102510.06;;;0.69;88.22
6208;BME280;3137;51.550;7.060;2023-02-15T01:16:07;102507.44;;;0.64;87.24
6208;BME280;3137;51.550;7.060;2023-02-15T01:18:34;102506.59;;;0.62;88.49
6208;BME280;3137;51.550;7.060;2023-02-15T01:21:12;102502.19;;;0.61;87.57
6208;BME280;3137;51.550;7.060;2023-02-15T01:23:42;102504.81;;;0.57;87.56
6208;BME280;3137;51.550;7.060;2023-02-15T01:26:11;102504.84;;;0.55;88.79
6208;BME280;3137;51.550;7.060;2023-02-15T01:28:38;102493.41;;;0.58;88.31
6208;BME280;3137;51.550;7.060;2023-02-15T01:31:10;102502.22;;;0.54;88.38
6208;BME280;3137;51.550;7.060;2023-02-15T01:33:37;102503.97;;;0.49;88.55
6208;BME280;3137;51.550;7.060;2023-02-15T01:36:04;102504.84;;;0.48;88.08
6208;BME280;3137;51.550;7.060;2023-02-15T01:38:31;102496.94;;;0.45;88.62
6208;BME280;3137;51.550;7.060;2023-02-15T01:40:58;102500.47;;;0.42;88.17
6208;BME280;3137;51.550;7.060;2023-02-15T01:43:47;102498.72;;;0.36;87.59
6208;BME280;3137;51.550;7.060;2023-02-15T01:46:16;102490.78;;;0.33;88.00
6208;BME280;3137;51.550;7.060;2023-02-15T01:48:50;102478.53;;;0.34;88.16
6208;BME280;3137;51.550;7.060;2023-02-15T01:51:21;102482.00;;;0.33;88.27
6208;BME280;3137;51.550;7.060;2023-02-15T01:53:58;102489.06;;;0.34;88.41
6208;BME280;3137;51.550;7.060;2023-02-15T01:56:30;102479.38;;;0.28;89.39
6208;BME280;3137;51.550;7.060;2023-02-15T01:58:58;102489.94;;;0.30;88.18
6208;BME280;3137;51.550;7.060;2023-02-15T02:01:26;102480.25;;;0.30;88.96
6208;BME280;3137;51.550;7.060;2023-02-15T02:06:32;102476.72;;;0.36;89.73
6208;BME280;3137;51.550;7.060;2023-02-15T02:09:00;102473.25;;;0.34;88.36
6208;BME280;3137;51.550;7.060;2023-02-15T02:11:27;102467.09;;;0.29;88.85
6208;BME280;3137;51.550;7.060;2023-02-15T02:13:55;102460.94;;;0.25;89.51
6208;BME280;3137;51.550;7.060;2023-02-15T02:16:27;102460.06;;;0.21;88.81
6208;BME280;3137;51.550;7.060;2023-02-15T02:33:20;102449.56;;;-0.06;88.27
6208;BME280;3137;51.550;7.060;2023-02-15T02:39:11;102443.41;;;-0.01;89.64
6208;BME280;3137;51.550;7.060;2023-02-15T02:44:49;102430.22;;;-0.01;89.49
6208;BME280;3137;51.550;7.060;2023-02-15T02:47:32;102427.59;;;-0.05;89.93
6208;BME280;3137;51.550;7.060;2023-02-15T02:50:04;102424.97;;;-0.05;89.67
6208;BME280;3137;51.550;7.060;2023-02-15T02:52:35;102417.94;;;-0.20;89.08
6208;BME280;3137;51.550;7.060;2023-02-15T02:55:09;102408.28;;;-0.24;88.63
6208;BME280;3137;51.550;7.060;2023-02-15T02:57:43;102409.19;;;-0.33;89.92
6208;BME280;3137;51.550;7.060;2023-02-15T03:00:13;102411.81;;;-0.28;89.66
6208;BME280;3137;51.550;7.060;2023-02-15T03:02:44;102416.22;;;-0.29;88.72
6208;BME280;3137;51.550;7.060;2023-02-15T03:05:15;102416.19;;;-0.36;89.54
6208;BME280;3137;51.550;7.060;2023-02-15T03:07:46;102415.31;;;-0.40;88.59
6208;BME280;3137;51.550;7.060;2023-02-15T03:10:15;102416.19;;;-0.39;88.76
6208;BME280;3137;51.550;7.060;2023-02-15T03:12:43;102401.28;;;-0.37;89.85
6208;BME280;3137;51.550;7.060;2023-02-15T03:15:15;102401.28;;;-0.45;89.92
6208;BME280;3137;51.550;7.060;2023-02-15T03:17:44;102404.75;;;-0.38;90.00
6208;BME280;3137;51.550;7.060;2023-02-15T03:22:44;102395.13;;;-0.39;89.04
6208;BME280;3137;51.550;7.060;2023-02-15T03:25:17;102396.03;;;-0.40;88.95
6208;BME280;3137;51.550;7.060;2023-02-15T03:27:50;102400.38;;;-0.41;89.26
6208;BME280;3137;51.550;7.060;2023-02-15T03:30:21;102398.63;;;-0.44;89.93
6208;BME280;3137;51.550;7.060;2023-02-15T03:32:49;102392.50;;;-0.44;88.86
6208;BME280;3137;51.550;7.060;2023-02-15T03:35:19;102388.09;;;-0.48;89.90
6208;BME280;3137;51.550;7.060;2023-02-15T03:37:52;102384.59;;;-0.53;89.75
6208;BME280;3137;51.550;7.060;2023-02-15T03:40:23;102396.88;;;-0.57;89.85
6208;BME280;3137;51.550;7.060;2023-02-15T03:43:18;102397.75;;;-0.61;89.19
6208;BME280;3137;51.550;7.060;2023-02-15T03:45:52;102403.88;;;-0.62;89.33
6208;BME280;3137;51.550;7.060;2023-02-15T03:48:24;102399.50;;;-0.65;89.84
6208;BME280;3137;51.550;7.060;2023-02-15T03:50:56;102396.84;;;-0.66;89.29
6208;BME280;3137;51.550;7.060;2023-02-15T03:53:43;102396.84;;;-0.69;89.74
6208;BME280;3137;51.550;7.060;2023-02-15T03:56:11;102394.22;;;-0.66;89.63
6208;BME280;3137;51.550;7.060;2023-02-15T03:58:37;102398.59;;;-0.68;89.10
6208;BME280;3137;51.550;7.060;2023-02-15T04:04:32;102393.34;;;-0.71;89.40
6208;BME280;3137;51.550;7.060;2023-02-15T04:07:00;102390.72;;;-0.71;89.49
6208;BME280;3137;51.550;7.060;2023-02-15T04:09:26;102387.19;;;-0.75;89.15
6208;BME280;3137;51.550;7.060;2023-02-15T04:12:11;102393.31;;;-0.74;89.56
6208;BME280;3137;51.550;7.060;2023-02-15T04:14:38;102389.84;;;-0.76;89.03
6208;BME280;3137;51.550;7.060;2023-02-15T04:17:23;102382.78;;;-0.77;90.21
6208;BME280;3137;51.550;7.060;2023-02-15T04:19:49;102384.53;;;-0.82;89.19
6208;BME280;3137;51.550;7.060;2023-02-15T04:22:34;102386.28;;;-0.81;89.89
6208;BME280;3137;51.550;7.060;2023-02-15T04:25:19;102389.81;;;-0.79;89.47
6208;BME280;3137;51.550;7.060;2023-02-15T04:27:53;102381.91;;;-0.82;89.46
6208;BME280;3137;51.550;7.060;2023-02-15T04:30:22;102384.56;;;-0.81;89.46
6208;BME280;3137;51.550;7.060;2023-02-15T04:32:49;102390.69;;;-0.80;90.08
6208;BME280;3137;51.550;7.060;2023-02-15T04:35:16;102388.06;;;-0.83;89.36
6208;BME280;3137;51.550;7.060;2023-02-15T04:37:43;102387.16;;;-0.84;89.24
6208;BME280;3137;51.550;7.060;2023-02-15T04:40:11;102391.56;;;-0.86;89.55
6208;BME280;3137;51.550;7.060;2023-02-15T04:42:38;102386.31;;;-0.86;89.27
6208;BME280;3137;51.550;7.060;2023-02-15T04:45:05;102381.91;;;-0.89;89.73
6208;BME280;3137;51.550;7.060;2023-02-15T04:47:31;102378.38;;;-0.89;90.25
6208;BME280;3137;51.550;7.060;2023-02-15T04:49:58;102371.38;;;-0.90;89.48
6208;BME280;3137;51.550;7.060;2023-02-15T04:52:24;102380.16;;;-0.88;89.60
6208;BME280;3137;51.550;7.060;2023-02-15T04:54:51;102374.88;;;-0.87;89.81
6208;BME280;3137;51.550;7.060;2023-02-15T04:57:17;102374.91;;;-0.85;89.77
6208;BME280;3137;51.550;7.060;2023-02-15T04:59:43;102374.03;;;-0.82;89.46
6208;BME280;3137;51.550;7.060;2023-02-15T05:02:10;102376.66;;;-0.86;89.64
6208;BME280;3137;51.550;7.060;2023-02-15T05:04:36;102377.53;;;-0.88;90.26
6208;BME280;3137;51.550;7.060;2023-02-15T05:07:03;102375.75;;;-0.92;90.29
6208;BME280;3137;51.550;7.060;2023-02-15T05:09:29;102379.25;;;-0.92;89.96
6208;BME280;3137;51.550;7.060;2023-02-15T05:11:56;102374.88;;;-0.96;89.17
6208;BME280;3137;51.550;7.060;2023-02-15T05:14:22;102374.00;;;-0.98;90.37
6208;BME280;3137;51.550;7.060;2023-02-15T05:16:49;102371.34;;;-0.99;90.10
6208;BME280;3137;51.550;7.060;2023-02-15T05:19:15;102362.59;;;-1.00;90.19
6208;BME280;3137;51.550;7.060;2023-02-15T05:21:41;102353.81;;;-1.07;90.43
6208;BME280;3137;51.550;7.060;2023-02-15T05:24:08;102352.06;;;-1.04;90.52
6208;BME280;3137;51.550;7.060;2023-02-15T05:26:53;102352.94;;;-1.07;90.42
6208;BME280;3137;51.550;7.060;2023-02-15T05:29:37;102350.28;;;-1.09;90.82
6208;BME280;3137;51.550;7.060;2023-02-15T05:32:04;102344.19;;;-1.03;90.27
6208;BME280;3137;51.550;7.060;2023-02-15T05:34:31;102342.41;;;-1.04;89.74
6208;BME280;3137;51.550;7.060;2023-02-15T05:36:57;102345.06;;;-1.02;89.78
6208;BME280;3137;51.550;7.060;2023-02-15T05:39:23;102352.09;;;-0.97;89.96
6208;BME280;3137;51.550;7.060;2023-02-15T05:41:50;102345.94;;;-1.00;90.09
6208;BME280;3137;51.550;7.060;2023-02-15T05:44:16;102342.44;;;-1.02;89.88
6208;BME280;3137;51.550;7.060;2023-02-15T05:46:42;102341.53;;;-0.98;90.61
6208;BME280;3137;51.550;7.060;2023-02-15T05:49:09;102336.28;;;-1.01;89.61
6208;BME280;3137;51.550;7.060;2023-02-15T05:51:35;102338.91;;;-1.06;89.83
6208;BME280;3137;51.550;7.060;2023-02-15T05:54:01;102335.38;;;-1.08;90.39
6208;BME280;3137;51.550;7.060;2023-02-15T05:56:28;102330.13;;;-1.11;89.88
6208;BME280;3137;51.550;7.060;2023-02-15T05:58:54;102328.41;;;-1.08;90.32
6208;BME280;3137;51.550;7.060;2023-02-15T06:01:21;102327.50;;;-1.11;90.50
6208;BME280;3137;51.550;7.060;2023-02-15T06:03:49;102339.78;;;-1.10;90.55
6208;BME280;3137;51.550;7.060;2023-02-15T06:06:15;102337.16;;;-1.10;90.20
6208;BME280;3137;51.550;7.060;2023-02-15T06:08:42;102333.66;;;-1.12;89.90
6208;BME280;3137;51.550;7.060;2023-02-15T06:11:09;102335.41;;;-1.11;90.18
6208;BME280;3137;51.550;7.060;2023-02-15T06:13:35;102341.53;;;-1.11;89.90
6208;BME280;3137;51.550;7.060;2023-02-15T06:16:05;102341.53;;;-1.11;90.43
6208;BME280;3137;51.550;7.060;2023-02-15T06:18:31;102343.25;;;-1.13;90.69
6208;BME280;3137;51.550;7.060;2023-02-15T06:20:58;102341.53;;;-1.14;90.25
6208;BME280;3137;51.550;7.060;2023-02-15T06:23:24;102341.53;;;-1.17;90.83
6208;BME280;3137;51.550;7.060;2023-02-15T06:25:51;102333.59;;;-1.20;90.30
6208;BME280;3137;51.550;7.060;2023-02-15T06:28:17;102345.00;;;-1.22;90.36
6208;BME280;3137;51.550;7.060;2023-02-15T06:30:43;102344.13;;;-1.23;90.42
6208;BME280;3137;51.550;7.060;2023-02-15T06:33:10;102343.25;;;-1.23;90.09
6208;BME280;3137;51.550;7.060;2023-02-15T06:35:36;102340.59;;;-1.25;90.24
6208;BME280;3137;51.550;7.060;2023-02-15T06:38:03;102338.03;;;-1.17;89.87
6208;BME280;3137;51.550;7.060;2023-02-15T06:40:29;102341.50;;;-1.15;89.56
6208;BME280;3137;51.550;7.060;2023-02-15T06:42:55;102350.28;;;-1.13;90.61
6208;BME280;3137;51.550;7.060;2023-02-15T06:45:22;102346.75;;;-1.15;90.21
6208;BME280;3137;51.550;7.060;2023-02-15T06:47:48;102354.66;;;-1.14;90.47
6208;BME280;3137;51.550;7.060;2023-02-15T06:50:14;102345.03;;;-1.12;90.24
6208;BME280;3137;51.550;7.060;2023-02-15T06:52:41;102345.03;;;-1.13;90.61
6208;BME280;3137;51.550;7.060;2023-02-15T06:55:07;102352.91;;;-1.13;90.10
6208;BME280;3137;51.550;7.060;2023-02-15T06:57:34;102348.53;;;-1.14;90.43
6208;BME280;3137;51.550;7.060;2023-02-15T07:00:00;102349.41;;;-1.15;90.62
6208;BME280;3137;51.550;7.060;2023-02-15T07:02:27;102350.28;;;-1.19;90.60
6208;BME280;3137;51.550;7.060;2023-02-15T07:04:53;102351.16;;;-1.22;90.41
6208;BME280;3137;51.550;7.060;2023-02-15T07:07:20;102350.25;;;-1.18;90.25
6208;BME280;3137;51.550;7.060;2023-02-15T07:09:46;102354.63;;;-1.20;90.56
6208;BME280;3137;51.550;7.060;2023-02-15T07:12:12;102351.13;;;-1.25;90.11
6208;BME280;3137;51.550;7.060;2023-02-15T07:14:57;102345.88;;;-1.23;90.69
6208;BME280;3137;51.550;7.060;2023-02-15T07:17:24;102348.50;;;-1.20;91.10
6208;BME280;3137;51.550;7.060;2023-02-15T07:20:06;102345.91;;;-1.19;90.52
6208;BME280;3137;51.550;7.060;2023-02-15T07:22:34;102343.28;;;-1.14;91.03
6208;BME280;3137;51.550;7.060;2023-02-15T07:25:06;102340.63;;;-1.13;90.80
6208;BME280;3137;51.550;7.060;2023-02-15T07:27:33;102347.66;;;-1.09;90.66
6208;BME280;3137;51.550;7.060;2023-02-15T07:30:00;102347.69;;;-1.07;90.84
6208;BME280;3137;51.550;7.060;2023-02-15T07:32:31;102341.56;;;-1.04;90.80
6208;BME280;3137;51.550;7.060;2023-02-15T07:34:58;102338.91;;;-1.01;90.50
6208;BME280;3137;51.550;7.060;2023-02-15T07:37:25;102331.06;;;-0.95;90.85
6208;BME280;3137;51.550;7.060;2023-02-15T07:39:52;102324.94;;;-0.88;90.99
6208;BME280;3137;51.550;7.060;2023-02-15T07:42:18;102321.44;;;-0.82;90.63
6208;BME280;3137;51.550;7.060;2023-02-15T07:44:47;102319.69;;;-0.73;90.63
6208;BME280;3137;51.550;7.060;2023-02-15T07:47:13;102317.94;;;-0.66;91.02
6208;BME280;3137;51.550;7.060;2023-02-15T07:49:39;102310.91;;;-0.53;90.89
6208;BME280;3137;51.550;7.060;2023-02-15T07:52:06;102306.53;;;-0.45;91.36
6208;BME280;3137;51.550;7.060;2023-02-15T07:54:32;102302.13;;;-0.37;92.02
6208;BME280;3137;51.550;7.060;2023-02-15T07:57:00;102307.38;;;-0.25;91.45
6208;BME280;3137;51.550;7.060;2023-02-15T07:59:26;102296.81;;;-0.12;91.16
6208;BME280;3137;51.550;7.060;2023-02-15T08:01:53;102298.53;;;0.04;92.03
6208;BME280;3137;51.550;7.060;2023-02-15T08:04:23;102298.53;;;0.15;92.28
6208;BME280;3137;51.550;7.060;2023-02-15T08:06:52;102296.72;;;0.26;91.42
6208;BME280;3137;51.550;7.060;2023-02-15T08:09:19;102287.03;;;0.39;91.55
6208;BME280;3137;51.550;7.060;2023-02-15T08:11:46;102276.38;;;0.57;91.69
6208;BME280;3137;51.550;7.060;2023-02-15T08:14:16;102288.63;;;0.72;92.04
6208;BME280;3137;51.550;7.060;2023-02-15T08:16:48;102283.25;;;0.86;92.14
6208;BME280;3137;51.550;7.060;2023-02-15T08:19:20;102283.16;;;1.00;91.91
6208;BME280;3137;51.550;7.060;2023-02-15T08:21:49;102276.88;;;1.16;92.16
6208;BME280;3137;51.550;7.060;2023-02-15T08:24:18;102277.72;;;1.21;92.64
6208;BME280;3137;51.550;7.060;2023-02-15T08:26:46;102277.69;;;1.24;92.71
6208;BME280;3137;51.550;7.060;2023-02-15T08:29:15;102279.38;;;1.33;92.26
6208;BME280;3137;51.550;7.060;2023-02-15T08:31:42;102275.84;;;1.37;91.68
6208;BME280;3137;51.550;7.060;2023-02-15T08:34:10;102269.63;;;1.44;92.73
6208;BME280;3137;51.550;7.060;2023-02-15T08:36:37;102273.00;;;1.57;92.61
6208;BME280;3137;51.550;7.060;2023-02-15T08:39:05;102272.84;;;1.76;92.46
6208;BME280;3137;51.550;7.060;2023-02-15T08:41:34;102262.09;;;1.91;92.59
6208;BME280;3137;51.550;7.060;2023-02-15T08:44:07;102278.59;;;2.13;92.38
6208;BME280;3137;51.550;7.060;2023-02-15T08:46:38;102261.66;;;2.29;92.40
6208;BME280;3137;51.550;7.060;2023-02-15T08:49:05;102255.22;;;2.49;91.99
6208;BME280;3137;51.550;7.060;2023-02-15T08:51:34;102259.41;;;2.65;91.94
6208;BME280;3137;51.550;7.060;2023-02-15T08:54:04;102253.81;;;2.87;92.23
6208;BME280;3137;51.550;7.060;2023-02-15T08:56:37;102252.56;;;3.11;92.50
6208;BME280;3137;51.550;7.060;2023-02-15T08:59:04;102254.91;;;3.28;91.91
6208;BME280;3137;51.550;7.060;2023-02-15T09:01:33;102255.47;;;3.48;90.97
6208;BME280;3137;51.550;7.060;2023-02-15T09:04:02;102250.78;;;3.64;91.03
6208;BME280;3137;51.550;7.060;2023-02-15T09:06:30;102252.13;;;3.85;90.39
6208;BME280;3137;51.550;7.060;2023-02-15T09:08:57;102241.88;;;4.12;90.01
6208;BME280;3137;51.550;7.060;2023-02-15T09:11:26;102245.88;;;4.33;89.35
6208;BME280;3137;51.550;7.060;2023-02-15T09:14:10;102250.81;;;4.50;87.55
6208;BME280;3137;51.550;7.060;2023-02-15T09:16:41;102244.94;;;4.76;85.90
6208;BME280;3137;51.550;7.060;2023-02-15T09:19:08;102236.47;;;4.97;84.26
6208;BME280;3137;51.550;7.060;2023-02-15T09:21:36;102236.34;;;5.02;83.03
6208;BME280;3137;51.550;7.060;2023-02-15T09:24:09;102237.19;;;5.04;82.23
6208;BME280;3137;51.550;7.060;2023-02-15T09:26:39;102237.09;;;5.07;82.16
6208;BME280;3137;51.550;7.060;2023-02-15T09:29:08;102247.28;;;5.25;82.53
6208;BME280;3137;51.550;7.060;2023-02-15T09:31:45;102238.28;;;5.31;81.75
6208;BME280;3137;51.550;7.060;2023-02-15T09:34:13;102240.69;;;5.40;81.52
6208;BME280;3137;51.550;7.060;2023-02-15T09:36:41;102243.13;;;5.49;79.75
6208;BME280;3137;51.550;7.060;2023-02-15T09:39:21;102241.09;;;5.59;78.20
6208;BME280;3137;51.550;7.060;2023-02-15T09:45:04;102248.34;;;5.87;77.06
6208;BME280;3137;51.550;7.060;2023-02-15T09:53:29;102242.72;;;6.29;76.41
6208;BME280;3137;51.550;7.060;2023-02-15T09:56:19;102246.53;;;6.50;76.30
6208;BME280;3137;51.550;7.060;2023-02-15T09:59:11;102252.28;;;6.66;76.30
6208;BME280;3137;51.550;7.060;2023-02-15T10:02:01;102254.28;;;6.87;74.43
6208;BME280;3137;51.550;7.060;2023-02-15T10:09:48;102249.88;;;7.39;71.89
6208;BME280;3137;51.550;7.060;2023-02-15T10:18:40;102236.56;;;8.38;66.13
6208;BME280;3137;51.550;7.060;2023-02-15T10:21:29;102238.34;;;8.61;64.17
6208;BME280;3137;51.550;7.060;2023-02-15T10:24:12;102237.78;;;8.77;62.09
6208;BME280;3137;51.550;7.060;2023-02-15T10:26:47;102232.09;;;9.06;62.60
6208;BME280;3137;51.550;7.060;2023-02-15T10:29:35;102235.94;;;9.21;60.74
6208;BME280;3137;51.550;7.060;2023-02-15T10:32:24;102220.75;;;9.44;61.51
6208;BME280;3137;51.550;7.060;2023-02-15T10:34:58;102227.91;;;9.64;60.60
6208;BME280;3137;51.550;7.060;2023-02-15T10:37:53;102216.28;;;9.84;60.17
6208;BME280;3137;51.550;7.060;2023-02-15T10:57:41;102215.22;;;10.84;56.30
6208;BME280;3137;51.550;7.060;2023-02-15T11:00:33;102214.72;;;11.12;57.01
6208;BME280;3137;51.550;7.060;2023-02-15T11:06:04;102202.91;;;11.34;55.35
6208;BME280;3137;51.550;7.060;2023-02-15T11:08:40;102200.78;;;11.40;55.39
6208;BME280;3137;51.550;7.060;2023-02-15T11:11:11;102198.25;;;11.55;54.12
6208;BME280;3137;51.550;7.060;2023-02-15T11:13:44;102198.16;;;11.56;53.83
6208;BME280;3137;51.550;7.060;2023-02-15T11:16:34;102198.94;;;11.76;53.66
6208;BME280;3137;51.550;7.060;2023-02-15T11:19:06;102198.31;;;11.88;52.87
6208;BME280;3137;51.550;7.060;2023-02-15T11:22:05;102190.28;;;12.04;51.08
6208;BME280;3137;51.550;7.060;2023-02-15T11:24:39;102195.69;;;12.20;49.20
6208;BME280;3137;51.550;7.060;2023-02-15T11:27:16;102189.06;;;12.43;49.40
6208;BME280;3137;51.550;7.060;2023-02-15T11:29:58;102193.38;;;12.61;49.31
6208;BME280;3137;51.550;7.060;2023-02-15T11:32:42;102184.44;;;12.61;48.13
6208;BME280;3137;51.550;7.060;2023-02-15T11:35:20;102176.66;;;12.56;48.02
6208;BME280;3137;51.550;7.060;2023-02-15T11:38:14;102177.16;;;12.79;47.76
6208;BME280;3137;51.550;7.060;2023-02-15T11:40:48;102182.97;;;12.71;46.24
6208;BME280;3137;51.550;7.060;2023-02-15T11:46:01;102171.72;;;12.48;48.36
6208;BME280;3137;51.550;7.060;2023-02-15T11:48:29;102173.84;;;12.73;48.38
6208;BME280;3137;51.550;7.060;2023-02-15T11:50:57;102176.53;;;12.89;45.89
6208;BME280;3137;51.550;7.060;2023-02-15T11:53:25;102163.72;;;13.09;46.51
6208;BME280;3137;51.550;7.060;2023-02-15T11:55:55;102168.28;;;13.23;45.07
6208;BME280;3137;51.550;7.060;2023-02-15T11:58:37;102164.97;;;13.33;45.26
6208;BME280;3137;51.550;7.060;2023-02-15T12:03:50;102161.72;;;13.43;43.50
6208;BME280;3137;51.550;7.060;2023-02-15T12:06:37;102156.28;;;13.44;44.68
6208;BME280;3137;51.550;7.060;2023-02-15T12:09:31;102154.88;;;13.67;44.39
6208;BME280;3137;51.550;7.060;2023-02-15T12:12:26;102148.22;;;13.73;44.02
6208;BME280;3137;51.550;7.060;2023-02-15T12:14:54;102150.22;;;13.69;43.47
6208;BME280;3137;51.550;7.060;2023-02-15T12:17:24;102148.31;;;13.71;44.33
6208;BME280;3137;51.550;7.060;2023-02-15T12:19:55;102139.16;;;13.74;43.59
6208;BME280;3137;51.550;7.060;2023-02-15T12:22:28;102140.63;;;13.79;43.34
6208;BME280;3137;51.550;7.060;2023-02-15T12:24:58;102136.88;;;13.82;42.93
6208;BME280;3137;51.550;7.060;2023-02-15T12:27:27;102132.72;;;13.91;43.90
6208;BME280;3137;51.550;7.060;2023-02-15T12:30:01;102132.63;;;13.92;42.27
6208;BME280;3137;51.550;7.060;2023-02-15T12:32:34;102131.66;;;13.93;41.78
6208;BME280;3137;51.550;7.060;2023-02-15T12:35:08;102120.72;;;13.68;41.04
6208;BME280;3137;51.550;7.060;2023-02-15T12:37:35;102122.06;;;13.89;42.87
6208;BME280;3137;51.550;7.060;2023-02-15T12:40:20;102129.38;;;14.01;42.35
6208;BME280;3137;51.550;7.060;2023-02-15T12:42:46;102123.09;;;14.15;42.18
6208;BME280;3137;51.550;7.060;2023-02-15T12:45:31;102114.03;;;14.16;41.15
6208;BME280;3137;51.550;7.060;2023-02-15T12:48:18;102116.06;;;14.27;40.96
6208;BME280;3137;51.550;7.060;2023-02-15T12:50:49;102111.28;;;14.45;40.18
6208;BME280;3137;51.550;7.060;2023-02-15T12:53:34;102108.38;;;14.48;40.82
6208;BME280;3137;51.550;7.060;2023-02-15T12:56:04;102109.34;;;14.47;39.01
6208;BME280;3137;51.550;7.060;2023-02-15T12:58:40;102104.56;;;14.38;40.21
6208;BME280;3137;51.550;7.060;2023-02-15T13:01:14;102106.09;;;14.42;40.17
6208;BME280;3137;51.550;7.060;2023-02-15T13:04:05;102107.03;;;14.41;40.57
6208;BME280;3137;51.550;7.060;2023-02-15T13:06:34;102105.66;;;14.48;39.80
6208;BME280;3137;51.550;7.060;2023-02-15T13:09:17;102095.19;;;14.43;39.20
6208;BME280;3137;51.550;7.060;2023-02-15T13:11:46;102092.53;;;14.29;38.79
6208;BME280;3137;51.550;7.060;2023-02-15T13:14:18;102097.69;;;14.46;40.25
6208;BME280;3137;51.550;7.060;2023-02-15T13:16:48;102098.09;;;14.67;39.97
6208;BME280;3137;51.550;7.060;2023-02-15T13:19:18;102103.09;;;14.74;39.38
6208;BME280;3137;51.550;7.060;2023-02-15T13:21:48;102088.75;;;14.73;39.75
6208;BME280;3137;51.550;7.060;2023-02-15T13:24:21;102092.69;;;14.55;40.73
6208;BME280;3137;51.550;7.060;2023-02-15T13:26:50;102087.84;;;14.60;39.98
6208;BME280;3137;51.550;7.060;2023-02-15T13:29:32;102076.81;;;14.77;38.34
6208;BME280;3137;51.550;7.060;2023-02-15T13:32:12;102080.16;;;14.81;39.11
6208;BME280;3137;51.550;7.060;2023-02-15T13:34:41;102075.41;;;14.84;40.23
6208;BME280;3137;51.550;7.060;2023-02-15T13:37:15;102069.44;;;14.66;38.10
6208;BME280;3137;51.550;7.060;2023-02-15T13:39:49;102063.56;;;14.60;38.51
6208;BME280;3137;51.550;7.060;2023-02-15T13:42:37;102065.50;;;14.31;38.87
6208;BME280;3137;51.550;7.060;2023-02-15T13:45:27;102060.19;;;14.29;40.89
6208;BME280;3137;51.550;7.060;2023-02-15T13:48:04;102046.72;;;14.29;39.59
6208;BME280;3137;51.550;7.060;2023-02-15T13:51:15;102047.13;;;14.23;39.62
6208;BME280;3137;51.550;7.060;2023-02-15T14:00:02;102039.44;;;14.17;37.84
6208;BME280;3137;51.550;7.060;2023-02-15T14:14:11;102026.19;;;14.14;37.96
6208;BME280;3137;51.550;7.060;2023-02-15T14:19:40;102024.00;;;14.33;37.84
6208;BME280;3137;51.550;7.060;2023-02-15T14:24:46;102029.34;;;14.20;36.69
6208;BME280;3137;51.550;7.060;2023-02-15T14:27:45;102034.13;;;14.30;38.21
6208;BME280;3137;51.550;7.060;2023-02-15T14:30:22;102029.22;;;14.22;37.26
6208;BME280;3137;51.550;7.060;2023-02-15T14:32:54;102032.28;;;14.30;37.11
6208;BME280;3137;51.550;7.060;2023-02-15T14:35:25;102028.16;;;14.24;38.65
6208;BME280;3137;51.550;7.060;2023-02-15T14:43:47;102032.53;;;13.71;38.33
6208;BME280;3137;51.550;7.060;2023-02-15T14:48:46;102030.34;;;13.64;39.47
6208;BME280;3137;51.550;7.060;2023-02-15T14:56:42;102013.63;;;13.44;41.26
6208;BME280;3137;51.550;7.060;2023-02-15T14:59:22;102011.03;;;13.43;41.51
6208;BME280;3137;51.550;7.060;2023-02-15T15:01:56;102003.06;;;13.41;40.15
6208;BME280;3137;51.550;7.060;2023-02-15T15:04:30;102002.88;;;13.44;40.20
6208;BME280;3137;51.550;7.060;2023-02-15T15:09:36;102010.84;;;13.46;39.39
6208;BME280;3137;51.550;7.060;2023-02-15T15:14:49;101999.13;;;13.32;40.14
6208;BME280;3137;51.550;7.060;2023-02-15T15:22:29;101991.34;;;13.28;41.03
6208;BME280;3137;51.550;7.060;2023-02-15T15:25:01;102000.63;;;13.22;39.84
6208;BME280;3137;51.550;7.060;2023-02-15T15:27:52;102006.00;;;13.22;40.22
6208;BME280;3137;51.550;7.060;2023-02-15T15:35:36;101990.44;;;13.13;39.43
6208;BME280;3137;51.550;7.060;2023-02-15T15:41:17;101995.53;;;13.03;40.39
6208;BME280;3137;51.550;7.060;2023-02-15T15:44:03;102004.81;;;12.97;40.57
6208;BME280;3137;51.550;7.060;2023-02-15T15:46:58;101998.78;;;12.94;42.08
6208;BME280;3137;51.550;7.060;2023-02-15T15:49:32;102003.19;;;12.95;41.65
6208;BME280;3137;51.550;7.060;2023-02-15T15:52:03;102000.78;;;12.90;40.52